sensor_id;sensor_type;location;lat;lon;timestamp;temperature;humidity
22249;DHT22;67538;52.180;5.646;2023-04-01T00:01:51;9.80;99.90
22249;DHT22;67538;52.180;5.646;2023-04-01T00:04:18;9.70;99.90
22249;DHT22;67538;52.180;5.646;2023-04-01T00:06:46;9.70;99.90
22249;DHT22;67538;52.180;5.646;2023-04-01T00:09:14;9.80;99.90
22249;DHT22;67538;52.180;5.646;2023-04-01T00:11:42;9.80;99.90
22249;DHT22;67538;52.180;5.646;2023-04-01T00:14:11;9.80;99.90
22249;DHT22;67538;52.180;5.646;2023-04-01T00:16:39;9.80;99.90
22249;DHT22;67538;52.180;5.646;2023-04-01T00:19:06;9.80;99.90
22249;DHT22;67538;52.180;5.646;2023-04-01T00:21:33;9.80;99.90
22249;DHT22;67538;52.180;5.646;2023-04-01T00:24:00;9.80;99.90
22249;DHT22;67538;52.180;5.646;2023-04-01T00:26:27;9.80;99.90
22249;DHT22;67538;52.180;5.646;2023-04-01T00:28:56;9.80;99.90
22249;DHT22;67538;52.180;5.646;2023-04-01T00:31:23;9.80;99.90
22249;DHT22;67538;52.180;5.646;2023-04-01T00:33:51;9.80;99.90
22249;DHT22;67538;52.180;5.646;2023-04-01T00:36:20;9.80;99.90
22249;DHT22;67538;52.180;5.646;2023-04-01T00:38:49;9.80;99.90
22249;DHT22;67538;52.180;5.646;2023-04-01T00:41:18;9.80;99.90
22249;DHT22;67538;52.180;5.646;2023-04-01T00:43:49;9.80;99.90
22249;DHT22;67538;52.180;5.646;2023-04-01T00:46:18;9.80;99.90
22249;DHT22;67538;52.180;5.646;2023-04-01T00:48:48;9.80;99.90
22249;DHT22;67538;52.180;5.646;2023-04-01T00:51:20;9.80;99.90
22249;DHT22;67538;52.180;5.646;2023-04-01T00:53:50;9.80;99.90
22249;DHT22;67538;52.180;5.646;2023-04-01T00:56:21;9.80;99.90
22249;DHT22;67538;52.180;5.646;2023-04-01T00:58:51;9.80;99.90
22249;DHT22;67538;52.180;5.646;2023-04-01T01:01:22;9.80;99.90
22249;DHT22;67538;52.180;5.646;2023-04-01T01:03:50;9.80;99.90
22249;DHT22;67538;52.180;5.646;2023-04-01T01:06:26;9.80;99.90
22249;DHT22;67538;52.180;5.646;2023-04-01T01:09:12;9.80;99.90
22249;DHT22;67538;52.180;5.646;2023-04-01T01:11:43;9.80;99.90
22249;DHT22;67538;52.180;5.646;2023-04-01T01:14:28;9.80;99.90
22249;DHT22;67538;52.180;5.646;2023-04-01T01:17:09;9.80;99.90
22249;DHT22;67538;52.180;5.646;2023-04-01T01:19:52;9.80;99.90
22249;DHT22;67538;52.180;5.646;2023-04-01T01:25:31;9.80;99.90
22249;DHT22;67538;52.180;5.646;2023-04-01T01:28:08;9.80;99.90
22249;DHT22;67538;52.180;5.646;2023-04-01T01:30:48;9.80;99.90
22249;DHT22;67538;52.180;5.646;2023-04-01T01:33:35;9.70;99.90
22249;DHT22;67538;52.180;5.646;2023-04-01T01:36:07;9.70;99.90
22249;DHT22;67538;52.180;5.646;2023-04-01T01:38:38;9.70;99.90
22249;DHT22;67538;52.180;5.646;2023-04-01T01:41:07;9.70;99.90
22249;DHT22;67538;52.180;5.646;2023-04-01T01:43:38;9.70;99.90
22249;DHT22;67538;52.180;5.646;2023-04-01T01:46:09;9.70;99.90
22249;DHT22;67538;52.180;5.646;2023-04-01T01:48:38;9.70;99.90
22249;DHT22;67538;52.180;5.646;2023-04-01T01:51:07;9.70;99.90
22249;DHT22;67538;52.180;5.646;2023-04-01T01:53:34;9.70;99.90
22249;DHT22;67538;52.180;5.646;2023-04-01T01:56:01;9.60;99.90
22249;DHT22;67538;52.180;5.646;2023-04-01T01:58:30;9.60;99.90
22249;DHT22;67538;52.180;5.646;2023-04-01T02:01:02;9.60;99.90
22249;DHT22;67538;52.180;5.646;2023-04-01T02:03:33;9.60;99.90
22249;DHT22;67538;52.180;5.646;2023-04-01T02:06:04;9.50;99.90
22249;DHT22;67538;52.180;5.646;2023-04-01T02:08:36;9.50;99.90
22249;DHT22;67538;52.180;5.646;2023-04-01T02:11:07;9.50;99.90
22249;DHT22;67538;52.180;5.646;2023-04-01T02:13:39;9.50;99.90
22249;DHT22;67538;52.180;5.646;2023-04-01T02:16:11;9.40;99.90
22249;DHT22;67538;52.180;5.646;2023-04-01T02:18:41;9.50;99.90
22249;DHT22;67538;52.180;5.646;2023-04-01T02:21:10;9.50;99.90
22249;DHT22;67538;52.180;5.646;2023-04-01T02:23:40;9.50;99.90
22249;DHT22;67538;52.180;5.646;2023-04-01T02:26:09;9.40;99.90
22249;DHT22;67538;52.180;5.646;2023-04-01T02:28:37;9.40;99.90
22249;DHT22;67538;52.180;5.646;2023-04-01T02:31:06;9.40;99.90
22249;DHT22;67538;52.180;5.646;2023-04-01T02:33:35;9.40;99.90
22249;DHT22;67538;52.180;5.646;2023-04-01T02:36:05;9.40;99.90
22249;DHT22;67538;52.180;5.646;2023-04-01T02:38:35;9.30;99.90
22249;DHT22;67538;52.180;5.646;2023-04-01T02:41:04;9.30;99.90
22249;DHT22;67538;52.180;5.646;2023-04-01T02:43:32;9.30;99.90
22249;DHT22;67538;52.180;5.646;2023-04-01T02:45:59;9.30;99.90
22249;DHT22;67538;52.180;5.646;2023-04-01T02:48:27;9.30;99.90
22249;DHT22;67538;52.180;5.646;2023-04-01T02:50:54;9.30;99.90
22249;DHT22;67538;52.180;5.646;2023-04-01T02:53:21;9.30;99.90
22249;DHT22;67538;52.180;5.646;2023-04-01T02:55:48;9.30;99.90
22249;DHT22;67538;52.180;5.646;2023-04-01T02:58:19;9.30;99.90
22249;DHT22;67538;52.180;5.646;2023-04-01T03:00:46;9.30;99.90
22249;DHT22;67538;52.180;5.646;2023-04-01T03:03:13;9.30;99.90
22249;DHT22;67538;52.180;5.646;2023-04-01T03:05:40;9.30;99.90
22249;DHT22;67538;52.180;5.646;2023-04-01T03:08:07;9.30;99.90
22249;DHT22;67538;52.180;5.646;2023-04-01T03:10:34;9.30;99.90
22249;DHT22;67538;52.180;5.646;2023-04-01T03:13:01;9.20;99.90
22249;DHT22;67538;52.180;5.646;2023-04-01T03:15:30;9.20;99.90
22249;DHT22;67538;52.180;5.646;2023-04-01T03:17:57;9.20;99.90
22249;DHT22;67538;52.180;5.646;2023-04-01T03:20:24;9.20;99.90
22249;DHT22;67538;52.180;5.646;2023-04-01T03:22:51;9.20;99.90
22249;DHT22;67538;52.180;5.646;2023-04-01T03:25:18;9.20;99.90
22249;DHT22;67538;52.180;5.646;2023-04-01T03:27:45;9.20;99.90
22249;DHT22;67538;52.180;5.646;2023-04-01T03:30:12;9.20;99.90
22249;DHT22;67538;52.180;5.646;2023-04-01T03:32:41;9.20;99.90
22249;DHT22;67538;52.180;5.646;2023-04-01T03:35:08;9.20;99.90
22249;DHT22;67538;52.180;5.646;2023-04-01T03:37:36;9.20;99.90
22249;DHT22;67538;52.180;5.646;2023-04-01T03:40:05;9.20;99.90
22249;DHT22;67538;52.180;5.646;2023-04-01T03:42:32;9.20;99.90
22249;DHT22;67538;52.180;5.646;2023-04-01T03:44:59;9.20;99.90
22249;DHT22;67538;52.180;5.646;2023-04-01T03:47:26;9.20;99.90
22249;DHT22;67538;52.180;5.646;2023-04-01T03:49:55;9.20;99.90
22249;DHT22;67538;52.180;5.646;2023-04-01T03:52:22;9.20;99.90
22249;DHT22;67538;52.180;5.646;2023-04-01T03:54:49;9.20;99.90
22249;DHT22;67538;52.180;5.646;2023-04-01T03:57:16;9.20;99.90
22249;DHT22;67538;52.180;5.646;2023-04-01T03:59:43;9.20;99.90
22249;DHT22;67538;52.180;5.646;2023-04-01T04:02:10;9.20;99.90
22249;DHT22;67538;52.180;5.646;2023-04-01T04:04:37;9.20;99.90
22249;DHT22;67538;52.180;5.646;2023-04-01T04:07:05;9.20;99.90
22249;DHT22;67538;52.180;5.646;2023-04-01T04:09:33;9.20;99.90
22249;DHT22;67538;52.180;5.646;2023-04-01T04:12:00;9.20;99.90
22249;DHT22;67538;52.180;5.646;2023-04-01T04:14:27;9.20;99.90
22249;DHT22;67538;52.180;5.646;2023-04-01T04:16:54;9.20;99.90
22249;DHT22;67538;52.180;5.646;2023-04-01T04:19:21;9.20;99.90
22249;DHT22;67538;52.180;5.646;2023-04-01T04:21:48;9.20;99.90
22249;DHT22;67538;52.180;5.646;2023-04-01T04:24:17;9.20;99.90
22249;DHT22;67538;52.180;5.646;2023-04-01T04:26:44;9.20;99.90
22249;DHT22;67538;52.180;5.646;2023-04-01T04:29:11;9.30;99.90
22249;DHT22;67538;52.180;5.646;2023-04-01T04:31:38;9.30;99.90
22249;DHT22;67538;52.180;5.646;2023-04-01T04:34:05;9.30;99.90
22249;DHT22;67538;52.180;5.646;2023-04-01T04:36:32;9.30;99.90
22249;DHT22;67538;52.180;5.646;2023-04-01T04:38:59;9.30;99.90
22249;DHT22;67538;52.180;5.646;2023-04-01T04:41:29;9.40;99.90
22249;DHT22;67538;52.180;5.646;2023-04-01T04:43:56;9.40;99.90
22249;DHT22;67538;52.180;5.646;2023-04-01T04:46:24;9.40;99.90
22249;DHT22;67538;52.180;5.646;2023-04-01T04:48:51;9.40;99.90
22249;DHT22;67538;52.180;5.646;2023-04-01T04:51:19;9.40;99.90
22249;DHT22;67538;52.180;5.646;2023-04-01T04:53:47;9.40;99.90
22249;DHT22;67538;52.180;5.646;2023-04-01T04:56:18;9.40;99.90
22249;DHT22;67538;52.180;5.646;2023-04-01T04:58:47;9.40;99.90
22249;DHT22;67538;52.180;5.646;2023-04-01T05:01:15;9.40;99.90
22249;DHT22;67538;52.180;5.646;2023-04-01T05:03:42;9.40;99.90
22249;DHT22;67538;52.180;5.646;2023-04-01T05:06:11;9.40;99.90
22249;DHT22;67538;52.180;5.646;2023-04-01T05:08:39;9.40;99.90
22249;DHT22;67538;52.180;5.646;2023-04-01T05:11:09;9.40;99.90
22249;DHT22;67538;52.180;5.646;2023-04-01T05:13:37;9.40;99.90
22249;DHT22;67538;52.180;5.646;2023-04-01T05:16:09;9.40;99.90
22249;DHT22;67538;52.180;5.646;2023-04-01T05:18:36;9.40;99.90
22249;DHT22;67538;52.180;5.646;2023-04-01T05:21:03;9.40;99.90
22249;DHT22;67538;52.180;5.646;2023-04-01T05:23:31;9.40;99.90
22249;DHT22;67538;52.180;5.646;2023-04-01T05:25:59;9.40;99.90
22249;DHT22;67538;52.180;5.646;2023-04-01T05:28:29;9.40;99.90
22249;DHT22;67538;52.180;5.646;2023-04-01T05:30:58;9.40;99.90
22249;DHT22;67538;52.180;5.646;2023-04-01T05:33:27;9.40;99.90
22249;DHT22;67538;52.180;5.646;2023-04-01T05:35:54;9.40;99.90
22249;DHT22;67538;52.180;5.646;2023-04-01T05:38:21;9.40;99.90
22249;DHT22;67538;52.180;5.646;2023-04-01T05:40:48;9.40;99.90
22249;DHT22;67538;52.180;5.646;2023-04-01T05:43:15;9.40;99.90
22249;DHT22;67538;52.180;5.646;2023-04-01T05:45:42;9.40;99.90
22249;DHT22;67538;52.180;5.646;2023-04-01T05:48:09;9.40;99.90
22249;DHT22;67538;52.180;5.646;2023-04-01T05:50:39;9.40;99.90
22249;DHT22;67538;52.180;5.646;2023-04-01T05:53:07;9.40;99.90
22249;DHT22;67538;52.180;5.646;2023-04-01T05:55:35;9.40;99.90
22249;DHT22;67538;52.180;5.646;2023-04-01T05:58:02;9.50;99.90
22249;DHT22;67538;52.180;5.646;2023-04-01T06:00:29;9.50;99.90
22249;DHT22;67538;52.180;5.646;2023-04-01T06:02:58;9.50;99.90
22249;DHT22;67538;52.180;5.646;2023-04-01T06:05:27;9.50;99.90
22249;DHT22;67538;52.180;5.646;2023-04-01T06:08:00;9.50;99.90
22249;DHT22;67538;52.180;5.646;2023-04-01T06:10:38;9.60;99.90
22249;DHT22;67538;52.180;5.646;2023-04-01T06:13:11;9.60;99.90
22249;DHT22;67538;52.180;5.646;2023-04-01T06:15:45;9.60;99.90
22249;DHT22;67538;52.180;5.646;2023-04-01T06:18:49;9.70;99.90
22249;DHT22;67538;52.180;5.646;2023-04-01T06:21:49;9.70;99.90
22249;DHT22;67538;52.180;5.646;2023-04-01T06:24:41;9.70;99.90
22249;DHT22;67538;52.180;5.646;2023-04-01T06:27:19;9.70;99.90
22249;DHT22;67538;52.180;5.646;2023-04-01T06:29:58;9.80;99.90
22249;DHT22;67538;52.180;5.646;2023-04-01T06:32:49;9.80;99.90
22249;DHT22;67538;52.180;5.646;2023-04-01T06:35:48;9.80;99.90
22249;DHT22;67538;52.180;5.646;2023-04-01T06:38:37;9.90;99.90
22249;DHT22;67538;52.180;5.646;2023-04-01T06:44:07;9.90;99.90
22249;DHT22;67538;52.180;5.646;2023-04-01T06:46:41;10.00;99.90
22249;DHT22;67538;52.180;5.646;2023-04-01T06:49:26;10.10;99.90
22249;DHT22;67538;52.180;5.646;2023-04-01T06:51:59;10.10;99.90
22249;DHT22;67538;52.180;5.646;2023-04-01T06:54:31;10.20;99.90
22249;DHT22;67538;52.180;5.646;2023-04-01T06:57:03;10.20;99.90
22249;DHT22;67538;52.180;5.646;2023-04-01T06:59:33;10.20;99.90
22249;DHT22;67538;52.180;5.646;2023-04-01T07:02:05;10.30;99.90
22249;DHT22;67538;52.180;5.646;2023-04-01T07:04:44;10.40;99.90
22249;DHT22;67538;52.180;5.646;2023-04-01T07:07:19;10.40;99.90
22249;DHT22;67538;52.180;5.646;2023-04-01T07:09:51;10.30;99.90
22249;DHT22;67538;52.180;5.646;2023-04-01T07:12:29;10.40;99.90
22249;DHT22;67538;52.180;5.646;2023-04-01T07:15:06;10.40;99.90
22249;DHT22;67538;52.180;5.646;2023-04-01T07:17:39;10.40;99.90
22249;DHT22;67538;52.180;5.646;2023-04-01T07:20:15;10.40;99.90
22249;DHT22;67538;52.180;5.646;2023-04-01T07:22:48;10.40;99.90
22249;DHT22;67538;52.180;5.646;2023-04-01T07:25:18;10.40;99.90
22249;DHT22;67538;52.180;5.646;2023-04-01T07:27:47;10.40;99.90
22249;DHT22;67538;52.180;5.646;2023-04-01T07:30:15;10.50;99.90
22249;DHT22;67538;52.180;5.646;2023-04-01T07:32:46;10.50;99.90
22249;DHT22;67538;52.180;5.646;2023-04-01T07:35:23;10.50;99.90
22249;DHT22;67538;52.180;5.646;2023-04-01T07:38:07;10.50;99.90
22249;DHT22;67538;52.180;5.646;2023-04-01T07:40:43;10.50;99.90
22249;DHT22;67538;52.180;5.646;2023-04-01T07:43:41;10.40;99.90
22249;DHT22;67538;52.180;5.646;2023-04-01T07:46:21;10.40;99.90
22249;DHT22;67538;52.180;5.646;2023-04-01T07:48:54;10.40;99.90
22249;DHT22;67538;52.180;5.646;2023-04-01T07:51:29;10.50;99.90
22249;DHT22;67538;52.180;5.646;2023-04-01T07:54:03;10.50;99.90
22249;DHT22;67538;52.180;5.646;2023-04-01T07:56:36;10.60;99.90
22249;DHT22;67538;52.180;5.646;2023-04-01T07:59:14;10.60;99.90
22249;DHT22;67538;52.180;5.646;2023-04-01T08:01:49;10.60;99.90
22249;DHT22;67538;52.180;5.646;2023-04-01T08:04:40;10.70;99.90
22249;DHT22;67538;52.180;5.646;2023-04-01T08:07:13;10.70;99.90
22249;DHT22;67538;52.180;5.646;2023-04-01T08:09:50;10.70;99.90
22249;DHT22;67538;52.180;5.646;2023-04-01T08:12:32;10.70;99.90
22249;DHT22;67538;52.180;5.646;2023-04-01T08:15:11;10.70;99.90
22249;DHT22;67538;52.180;5.646;2023-04-01T08:17:47;10.70;99.90
22249;DHT22;67538;52.180;5.646;2023-04-01T08:20:26;10.70;99.90
22249;DHT22;67538;52.180;5.646;2023-04-01T08:23:00;10.70;99.90
22249;DHT22;67538;52.180;5.646;2023-04-01T08:25:29;10.70;99.90
22249;DHT22;67538;52.180;5.646;2023-04-01T08:28:01;10.70;99.90
22249;DHT22;67538;52.180;5.646;2023-04-01T08:30:39;10.70;99.90
22249;DHT22;67538;52.180;5.646;2023-04-01T08:33:13;10.70;99.90
22249;DHT22;67538;52.180;5.646;2023-04-01T08:35:47;10.70;99.90
22249;DHT22;67538;52.180;5.646;2023-04-01T08:38:19;10.80;99.90
22249;DHT22;67538;52.180;5.646;2023-04-01T08:41:28;10.70;99.90
22249;DHT22;67538;52.180;5.646;2023-04-01T08:44:34;10.80;99.90
22249;DHT22;67538;52.180;5.646;2023-04-01T08:53:32;10.80;99.90
22249;DHT22;67538;52.180;5.646;2023-04-01T08:56:12;10.90;99.90
22249;DHT22;67538;52.180;5.646;2023-04-01T08:58:57;10.90;99.90
22249;DHT22;67538;52.180;5.646;2023-04-01T09:07:28;10.90;99.90
22249;DHT22;67538;52.180;5.646;2023-04-01T09:10:15;10.90;99.90
22249;DHT22;67538;52.180;5.646;2023-04-01T09:13:14;11.00;99.90
22249;DHT22;67538;52.180;5.646;2023-04-01T09:16:11;11.10;99.90
22249;DHT22;67538;52.180;5.646;2023-04-01T09:21:57;11.20;99.90
22249;DHT22;67538;52.180;5.646;2023-04-01T09:24:35;11.20;99.90
22249;DHT22;67538;52.180;5.646;2023-04-01T09:27:11;11.20;99.90
22249;DHT22;67538;52.180;5.646;2023-04-01T09:32:51;11.40;99.90
22249;DHT22;67538;52.180;5.646;2023-04-01T09:35:23;11.60;99.90
22249;DHT22;67538;52.180;5.646;2023-04-01T09:38:03;11.70;99.90
22249;DHT22;67538;52.180;5.646;2023-04-01T09:40:40;11.80;99.90
22249;DHT22;67538;52.180;5.646;2023-04-01T09:43:26;11.70;99.90
22249;DHT22;67538;52.180;5.646;2023-04-01T09:46:09;11.70;99.90
22249;DHT22;67538;52.180;5.646;2023-04-01T09:51:38;11.70;99.90
22249;DHT22;67538;52.180;5.646;2023-04-01T09:54:20;11.80;99.90
22249;DHT22;67538;52.180;5.646;2023-04-01T10:00:20;11.90;99.90
22249;DHT22;67538;52.180;5.646;2023-04-01T10:06:19;11.80;99.90
22249;DHT22;67538;52.180;5.646;2023-04-01T10:09:15;11.80;99.90
22249;DHT22;67538;52.180;5.646;2023-04-01T10:12:17;11.90;99.90
22249;DHT22;67538;52.180;5.646;2023-04-01T10:15:19;12.00;99.90
22249;DHT22;67538;52.180;5.646;2023-04-01T10:21:13;12.30;99.90
22249;DHT22;67538;52.180;5.646;2023-04-01T10:24:34;12.30;99.90
22249;DHT22;67538;52.180;5.646;2023-04-01T10:33:53;12.00;99.90
22249;DHT22;67538;52.180;5.646;2023-04-01T10:42:54;11.70;99.90
22249;DHT22;67538;52.180;5.646;2023-04-01T10:45:59;11.60;99.90
22249;DHT22;67538;52.180;5.646;2023-04-01T10:54:48;11.60;99.90
22249;DHT22;67538;52.180;5.646;2023-04-01T10:57:55;11.60;99.90
22249;DHT22;67538;52.180;5.646;2023-04-01T11:00:53;11.50;99.90
22249;DHT22;67538;52.180;5.646;2023-04-01T11:07:15;11.50;99.90
22249;DHT22;67538;52.180;5.646;2023-04-01T11:10:24;11.40;99.90
22249;DHT22;67538;52.180;5.646;2023-04-01T11:16:26;11.40;99.90
22249;DHT22;67538;52.180;5.646;2023-04-01T11:19:32;11.40;99.90
22249;DHT22;67538;52.180;5.646;2023-04-01T11:28:24;11.60;99.90
22249;DHT22;67538;52.180;5.646;2023-04-01T11:31:17;11.70;99.90
22249;DHT22;67538;52.180;5.646;2023-04-01T11:33:55;11.70;99.90
22249;DHT22;67538;52.180;5.646;2023-04-01T11:36:37;11.80;99.90
22249;DHT22;67538;52.180;5.646;2023-04-01T11:39:19;11.90;99.90
22249;DHT22;67538;52.180;5.646;2023-04-01T11:41:55;11.90;99.90
22249;DHT22;67538;52.180;5.646;2023-04-01T11:44:25;11.80;99.90
22249;DHT22;67538;52.180;5.646;2023-04-01T11:47:10;11.80;99.90
22249;DHT22;67538;52.180;5.646;2023-04-01T11:49:56;11.70;99.90
22249;DHT22;67538;52.180;5.646;2023-04-01T11:52:43;11.60;99.90
22249;DHT22;67538;52.180;5.646;2023-04-01T11:55:28;11.70;99.90
22249;DHT22;67538;52.180;5.646;2023-04-01T11:58:12;11.60;99.90
22249;DHT22;67538;52.180;5.646;2023-04-01T12:00:51;11.70;99.90
22249;DHT22;67538;52.180;5.646;2023-04-01T12:03:37;11.80;99.90
22249;DHT22;67538;52.180;5.646;2023-04-01T12:06:11;11.90;99.90
22249;DHT22;67538;52.180;5.646;2023-04-01T12:08:48;12.00;99.90
22249;DHT22;67538;52.180;5.646;2023-04-01T12:11:23;12.00;99.90
22249;DHT22;67538;52.180;5.646;2023-04-01T12:13:57;12.00;99.90
22249;DHT22;67538;52.180;5.646;2023-04-01T12:16:37;12.00;99.90
22249;DHT22;67538;52.180;5.646;2023-04-01T12:19:16;11.90;99.90
22249;DHT22;67538;52.180;5.646;2023-04-01T12:21:57;11.90;99.90
22249;DHT22;67538;52.180;5.646;2023-04-01T12:24:49;11.80;99.90
22249;DHT22;67538;52.180;5.646;2023-04-01T12:27:27;11.80;99.90
22249;DHT22;67538;52.180;5.646;2023-04-01T12:33:17;11.70;99.90
22249;DHT22;67538;52.180;5.646;2023-04-01T12:35:55;11.70;99.90
22249;DHT22;67538;52.180;5.646;2023-04-01T12:38:31;11.70;99.90
22249;DHT22;67538;52.180;5.646;2023-04-01T12:41:10;11.70;99.90
22249;DHT22;67538;52.180;5.646;2023-04-01T12:44:13;11.80;99.90
22249;DHT22;67538;52.180;5.646;2023-04-01T12:46:54;11.90;99.90
22249;DHT22;67538;52.180;5.646;2023-04-01T12:49:48;11.90;99.90
22249;DHT22;67538;52.180;5.646;2023-04-01T12:52:25;11.90;99.90
22249;DHT22;67538;52.180;5.646;2023-04-01T12:55:25;11.90;99.90
22249;DHT22;67538;52.180;5.646;2023-04-01T13:01:08;11.90;99.90
22249;DHT22;67538;52.180;5.646;2023-04-01T13:03:51;12.00;99.90
22249;DHT22;67538;52.180;5.646;2023-04-01T13:06:40;12.10;99.90
22249;DHT22;67538;52.180;5.646;2023-04-01T13:09:21;12.10;99.90
22249;DHT22;67538;52.180;5.646;2023-04-01T13:12:15;12.00;99.90
22249;DHT22;67538;52.180;5.646;2023-04-01T13:15:13;12.00;99.90
22249;DHT22;67538;52.180;5.646;2023-04-01T13:17:48;11.90;99.90
22249;DHT22;67538;52.180;5.646;2023-04-01T13:20:24;11.80;99.90
22249;DHT22;67538;52.180;5.646;2023-04-01T13:23:06;11.80;99.90
22249;DHT22;67538;52.180;5.646;2023-04-01T13:25:44;11.70;99.90
22249;DHT22;67538;52.180;5.646;2023-04-01T13:28:17;11.70;99.90
22249;DHT22;67538;52.180;5.646;2023-04-01T13:30:51;11.70;99.90
22249;DHT22;67538;52.180;5.646;2023-04-01T13:33:25;11.60;99.90
22249;DHT22;67538;52.180;5.646;2023-04-01T13:36:03;11.50;99.90
22249;DHT22;67538;52.180;5.646;2023-04-01T13:39:01;11.50;99.90
22249;DHT22;67538;52.180;5.646;2023-04-01T13:41:47;11.40;99.90
22249;DHT22;67538;52.180;5.646;2023-04-01T13:44:22;11.40;99.90
22249;DHT22;67538;52.180;5.646;2023-04-01T13:47:11;11.40;99.90
22249;DHT22;67538;52.180;5.646;2023-04-01T13:50:02;11.50;99.90
22249;DHT22;67538;52.180;5.646;2023-04-01T13:52:56;11.40;99.90
22249;DHT22;67538;52.180;5.646;2023-04-01T13:55:53;11.40;99.90
22249;DHT22;67538;52.180;5.646;2023-04-01T13:58:38;11.40;99.90
22249;DHT22;67538;52.180;5.646;2023-04-01T14:01:13;11.40;99.90
22249;DHT22;67538;52.180;5.646;2023-04-01T14:04:10;11.30;99.90
22249;DHT22;67538;52.180;5.646;2023-04-01T14:06:53;11.30;99.90
22249;DHT22;67538;52.180;5.646;2023-04-01T14:09:35;11.20;99.90
22249;DHT22;67538;52.180;5.646;2023-04-01T14:12:17;11.20;99.90
22249;DHT22;67538;52.180;5.646;2023-04-01T14:15:05;11.10;99.90
22249;DHT22;67538;52.180;5.646;2023-04-01T14:17:52;11.10;99.90
22249;DHT22;67538;52.180;5.646;2023-04-01T14:20:36;11.10;99.90
22249;DHT22;67538;52.180;5.646;2023-04-01T14:23:28;11.10;99.90
22249;DHT22;67538;52.180;5.646;2023-04-01T14:29:02;11.10;99.90
22249;DHT22;67538;52.180;5.646;2023-04-01T14:31:42;11.20;99.90
22249;DHT22;67538;52.180;5.646;2023-04-01T14:34:26;11.30;99.90
22249;DHT22;67538;52.180;5.646;2023-04-01T14:37:15;11.30;99.90
22249;DHT22;67538;52.180;5.646;2023-04-01T14:40:05;11.40;99.90
22249;DHT22;67538;52.180;5.646;2023-04-01T14:43:14;11.40;99.90
22249;DHT22;67538;52.180;5.646;2023-04-01T14:46:00;11.50;99.90
22249;DHT22;67538;52.180;5.646;2023-04-01T14:48:36;11.50;99.90
22249;DHT22;67538;52.180;5.646;2023-04-01T14:51:10;11.50;99.90
22249;DHT22;67538;52.180;5.646;2023-04-01T14:53:44;11.50;99.90
22249;DHT22;67538;52.180;5.646;2023-04-01T14:56:39;11.60;99.90
22249;DHT22;67538;52.180;5.646;2023-04-01T14:59:10;11.60;99.90
22249;DHT22;67538;52.180;5.646;2023-04-01T15:01:47;11.60;99.90
22249;DHT22;67538;52.180;5.646;2023-04-01T15:04:46;11.70;99.90
22249;DHT22;67538;52.180;5.646;2023-04-01T15:07:42;11.60;99.90
22249;DHT22;67538;52.180;5.646;2023-04-01T15:10:24;11.70;99.90
22249;DHT22;67538;52.180;5.646;2023-04-01T15:13:05;11.60;99.90
22249;DHT22;67538;52.180;5.646;2023-04-01T15:15:49;11.60;99.90
22249;DHT22;67538;52.180;5.646;2023-04-01T15:18:20;11.50;99.90
22249;DHT22;67538;52.180;5.646;2023-04-01T15:21:05;11.40;99.90
22249;DHT22;67538;52.180;5.646;2023-04-01T15:23:45;11.40;99.90
22249;DHT22;67538;52.180;5.646;2023-04-01T15:26:30;11.30;99.90
22249;DHT22;67538;52.180;5.646;2023-04-01T15:29:08;11.40;99.90
22249;DHT22;67538;52.180;5.646;2023-04-01T15:31:40;11.30;99.90
22249;DHT22;67538;52.180;5.646;2023-04-01T15:34:24;11.30;99.90
22249;DHT22;67538;52.180;5.646;2023-04-01T15:36:59;11.30;99.90
22249;DHT22;67538;52.180;5.646;2023-04-01T15:39:50;11.30;99.90
22249;DHT22;67538;52.180;5.646;2023-04-01T15:42:35;11.30;99.90
22249;DHT22;67538;52.180;5.646;2023-04-01T15:45:22;11.20;99.90
22249;DHT22;67538;52.180;5.646;2023-04-01T15:48:06;11.20;99.90
22249;DHT22;67538;52.180;5.646;2023-04-01T15:51:11;11.10;99.90
22249;DHT22;67538;52.180;5.646;2023-04-01T15:54:05;11.10;99.90
22249;DHT22;67538;52.180;5.646;2023-04-01T15:56:48;11.10;99.90
22249;DHT22;67538;52.180;5.646;2023-04-01T15:59:27;11.00;99.90
22249;DHT22;67538;52.180;5.646;2023-04-01T16:02:01;11.00;99.90
22249;DHT22;67538;52.180;5.646;2023-04-01T16:04:46;10.90;99.90
22249;DHT22;67538;52.180;5.646;2023-04-01T16:07:30;10.90;99.90
22249;DHT22;67538;52.180;5.646;2023-04-01T16:10:23;10.80;99.90
22249;DHT22;67538;52.180;5.646;2023-04-01T16:13:00;10.80;99.90
22249;DHT22;67538;52.180;5.646;2023-04-01T16:15:38;10.80;99.90
22249;DHT22;67538;52.180;5.646;2023-04-01T16:18:24;10.70;99.90
22249;DHT22;67538;52.180;5.646;2023-04-01T16:20:57;10.70;99.90
22249;DHT22;67538;52.180;5.646;2023-04-01T16:23:33;10.60;99.90
22249;DHT22;67538;52.180;5.646;2023-04-01T16:26:07;10.50;99.90
22249;DHT22;67538;52.180;5.646;2023-04-01T16:28:40;10.40;99.90
22249;DHT22;67538;52.180;5.646;2023-04-01T16:31:13;10.40;99.90
22249;DHT22;67538;52.180;5.646;2023-04-01T16:33:47;10.40;99.90
22249;DHT22;67538;52.180;5.646;2023-04-01T16:36:24;10.40;99.90
22249;DHT22;67538;52.180;5.646;2023-04-01T16:39:14;10.40;99.90
22249;DHT22;67538;52.180;5.646;2023-04-01T16:41:49;10.40;99.90
22249;DHT22;67538;52.180;5.646;2023-04-01T16:44:19;10.30;99.90
22249;DHT22;67538;52.180;5.646;2023-04-01T16:46:49;10.30;99.90
22249;DHT22;67538;52.180;5.646;2023-04-01T16:49:29;10.30;99.90
22249;DHT22;67538;52.180;5.646;2023-04-01T16:52:15;10.20;99.90
22249;DHT22;67538;52.180;5.646;2023-04-01T16:54:47;10.20;99.90
22249;DHT22;67538;52.180;5.646;2023-04-01T16:57:25;10.10;99.90
22249;DHT22;67538;52.180;5.646;2023-04-01T16:59:57;10.10;99.90
22249;DHT22;67538;52.180;5.646;2023-04-01T17:02:30;10.00;99.90
22249;DHT22;67538;52.180;5.646;2023-04-01T17:05:00;10.00;99.90
22249;DHT22;67538;52.180;5.646;2023-04-01T17:07:42;10.00;99.90
22249;DHT22;67538;52.180;5.646;2023-04-01T17:10:37;10.00;99.90
22249;DHT22;67538;52.180;5.646;2023-04-01T17:13:23;9.90;99.90
22249;DHT22;67538;52.180;5.646;2023-04-01T17:16:01;9.90;99.90
22249;DHT22;67538;52.180;5.646;2023-04-01T17:18:37;9.90;99.90
22249;DHT22;67538;52.180;5.646;2023-04-01T17:21:10;9.90;99.90
22249;DHT22;67538;52.180;5.646;2023-04-01T17:23:42;9.80;99.90
22249;DHT22;67538;52.180;5.646;2023-04-01T17:26:20;9.80;99.90
22249;DHT22;67538;52.180;5.646;2023-04-01T17:28:58;9.80;99.90
22249;DHT22;67538;52.180;5.646;2023-04-01T17:31:45;9.70;99.90
22249;DHT22;67538;52.180;5.646;2023-04-01T17:34:29;9.70;99.90
22249;DHT22;67538;52.180;5.646;2023-04-01T17:37:20;9.70;99.90
22249;DHT22;67538;52.180;5.646;2023-04-01T17:40:13;9.60;99.90
22249;DHT22;67538;52.180;5.646;2023-04-01T17:42:47;9.60;99.90
22249;DHT22;67538;52.180;5.646;2023-04-01T17:45:22;9.60;99.90
22249;DHT22;67538;52.180;5.646;2023-04-01T17:47:59;9.60;99.90
22249;DHT22;67538;52.180;5.646;2023-04-01T17:50:44;9.50;99.90
22249;DHT22;67538;52.180;5.646;2023-04-01T17:53:20;9.50;99.90
22249;DHT22;67538;52.180;5.646;2023-04-01T17:56:02;9.40;99.90
22249;DHT22;67538;52.180;5.646;2023-04-01T17:58:40;9.40;99.90